Wetterdaten: aktuell Montag, 24.06.2019 23:50
Datum Zeit Temperatur Bodentemp. Luftfeuchte Luftdruck Niederschlag Windgeschw. Windrichtung Windrichtung Sonnenschein Nieder.dauer Evapotrans. Solarstrahl. Taupunkt Windchill Windböen
24.06.2019 23:50 19,1 °C 17,8 °C 80 % 1022,1 hPa 0,0 l/m² 0,0 km/h (0 Bft) N 0 ° 0 min 0 min 0 mm 0 W/m² 15,6 °C 19,1 °C 0,0 km/h (0 Bft)
24.06.2019 22:50 19,7 °C 18,3 °C 79 % 1021,7 hPa 0,0 l/m² 1,8 km/h (1 Bft) O-SO 112 ° 0 min 0 min 0 mm 0 W/m² 16,0 °C 19,7 °C 7,2 km/h (2 Bft)
24.06.2019 21:50 20,5 °C 19,4 °C 77 % 1021,5 hPa 0,0 l/m² 0,0 km/h (0 Bft) N 0 ° 9 min 0 min 0 mm 9 W/m² 16,3 °C 20,5 °C 0,0 km/h (0 Bft)
24.06.2019 20:50 21,7 °C 22,2 °C 71 % 1021,7 hPa 0,0 l/m² 5,4 km/h (1 Bft) O-SO 112 ° 0 min 0 min 0 mm 63 W/m² 16,2 °C 21,7 °C 9,0 km/h (2 Bft)
24.06.2019 19:50 22,9 °C 22,8 °C 70 % 1022,2 hPa 0,0 l/m² 9,0 km/h (2 Bft) O-SO 112 ° 11 min 0 min 0 mm 130 W/m² 17,1 °C 22,1 °C 14,4 km/h (3 Bft)
24.06.2019 18:50 24,2 °C 24,4 °C 64 % 1022,2 hPa 0,0 l/m² 3,6 km/h (1 Bft) O-SO 112 ° 52 min 0 min 0 mm 149 W/m² 16,9 °C 24,2 °C 16,1 km/h (3 Bft)
24.06.2019 17:50 25,2 °C 28,9 °C 59 % 1022,3 hPa 0,0 l/m² 10,8 km/h (2 Bft) O 90 ° 60 min 0 min 0 mm 438 W/m² 16,6 °C 24,2 °C 17,9 km/h (3 Bft)
24.06.2019 16:50 25,2 °C 24,4 °C 52 % 1022,8 hPa 0,0 l/m² 1,8 km/h (1 Bft) O 90 ° 60 min 0 min 1 mm 682 W/m² 14,6 °C 25,2 °C 10,8 km/h (2 Bft)
24.06.2019 15:50 25,9 °C 25,0 °C 44 % 1023,3 hPa 0,0 l/m² 10,8 km/h (2 Bft) O 90 ° 60 min 0 min 1 mm 759 W/m² 12,7 °C 25,0 °C 17,9 km/h (3 Bft)
24.06.2019 14:50 25,5 °C 25,6 °C 44 % 1023,3 hPa 0,0 l/m² 5,4 km/h (1 Bft) O 90 ° 58 min 0 min 1 mm 844 W/m² 12,3 °C 25,5 °C 10,8 km/h (2 Bft)
24.06.2019 13:50 25,5 °C 30,0 °C 49 % 1023,7 hPa 0,0 l/m² 10,8 km/h (2 Bft) O 90 ° 60 min 0 min 1 mm 712 W/m² 14,0 °C 24,6 °C 16,1 km/h (3 Bft)
24.06.2019 12:50 25,4 °C 33,9 °C 49 % 1023,8 hPa 0,0 l/m² 10,8 km/h (2 Bft) O 90 ° 60 min 0 min 1 mm 882 W/m² 13,9 °C 24,5 °C 17,9 km/h (3 Bft)
24.06.2019 11:50 24,5 °C 27,2 °C 59 % 1024,3 hPa 0,0 l/m² 3,6 km/h (1 Bft) O-SO 112 ° 60 min 0 min 0 mm 879 W/m² 15,9 °C 24,5 °C 7,2 km/h (2 Bft)
24.06.2019 10:50 23,3 °C 22,8 °C 57 % 1024,4 hPa 0,0 l/m² 7,2 km/h (2 Bft) O-SO 112 ° 60 min 0 min 0 mm 784 W/m² 14,3 °C 23,1 °C 14,4 km/h (3 Bft)
24.06.2019 09:50 21,4 °C 19,4 °C 58 % 1024,6 hPa 0,0 l/m² 0,0 km/h (0 Bft) N 0 ° 60 min 0 min 0 mm 649 W/m² 12,8 °C 21,4 °C 0,0 km/h (0 Bft)
24.06.2019 08:50 19,5 °C 18,3 °C 66 % 1024,4 hPa 0,0 l/m² 10,8 km/h (2 Bft) O 90 ° 60 min 0 min 0 mm 438 W/m² 13,0 °C 17,8 °C 16,1 km/h (3 Bft)
24.06.2019 07:50 16,2 °C 15,0 °C 80 % 1024,7 hPa 0,0 l/m² 9,0 km/h (2 Bft) O 90 ° 29 min 0 min 0 mm 304 W/m² 12,7 °C 14,9 °C 16,1 km/h (3 Bft)
24.06.2019 06:50 14,5 °C 14,4 °C 85 % 1024,8 hPa 0,0 l/m² 0,0 km/h (0 Bft) N 0 ° 2 min 0 min 0 mm 142 W/m² 12,0 °C 14,5 °C 0,0 km/h (0 Bft)
24.06.2019 05:50 13,9 °C 13,3 °C 91 % 1024,4 hPa 0,0 l/m² 0,0 km/h (0 Bft) N 0 ° 15 min 0 min 0 mm 46 W/m² 12,5 °C 13,9 °C 0,0 km/h (0 Bft)
24.06.2019 04:50 13,7 °C 13,3 °C 92 % 1024,3 hPa 0,0 l/m² 0,0 km/h (0 Bft) N 0 ° 0 min 0 min 0 mm 9 W/m² 12,4 °C 13,7 °C 0,0 km/h (0 Bft)
24.06.2019 03:50 14,3 °C 13,9 °C 90 % 1024,3 hPa 0,0 l/m² 0,0 km/h (0 Bft) O-SO 112 ° 0 min 0 min 0 mm 0 W/m² 12,7 °C 14,3 °C 1,8 km/h (1 Bft)
24.06.2019 02:50 14,9 °C 14,4 °C 88 % 1024,3 hPa 0,0 l/m² 1,8 km/h (1 Bft) O 90 ° 0 min 0 min 0 mm 0 W/m² 12,9 °C 14,9 °C 7,2 km/h (2 Bft)
24.06.2019 01:50 14,8 °C 13,9 °C 93 % 1023,9 hPa 0,0 l/m² 0,0 km/h (0 Bft) N 0 ° 0 min 0 min 0 mm 0 W/m² 13,7 °C 14,8 °C 0,0 km/h (0 Bft)
24.06.2019 00:50 15,1 °C 14,4 °C 92 % 1023,7 hPa 0,0 l/m² 0,0 km/h (0 Bft) N 0 ° 0 min 0 min 0 mm 0 W/m² 13,8 °C 15,1 °C 0,0 km/h (0 Bft)
24.06.2019 00:00 15,4 °C 15,0 °C 91 % 1023,7 hPa 0,0 l/m² 0,0 km/h (0 Bft) N 0 ° 0 min 0 min 0 mm 0 W/m² 13,9 °C 15,4 °C 0,0 km/h (0 Bft)
_ Min-Zeit 04:56 04:31 16:05 21:45 - 00:00 - - - - - - 16:05 07:28 00:00
Minimum _ 13,5 °C 13,3 °C 39 % 1021,5 hPa - 0,0 km/h (0 Bft) - - - - - - 10,8 °C 13,4 °C 0,0 km/h (0 Bft)
_ Max-Zeit 15:32 12:45 01:20 06:30 00:00 15:05 - - 05:04 00:00 15:00 14:11 19:30 15:33 14:33
Maximum _ 26,3 °C 34,4 °C 94 % 1024,8 hPa 0,0 l/m² 16,1 km/h
O (3 Bft)
- - 1 min 0 min 1 mm 946 W/m² 17,6 °C 26,3 °C 25,1 km/h
O-SO (4 Bft)
Durchschnitt _ 20,3 °C 20,6 °C 70 % 1023,5 hPa #0,0 l/m² 3,6 km/h (1 Bft) O - #11:56 h #0 min. #5,283 mm 450 W/m² 14,2 °C 20,1 °C 7,7 km/h (2 Bft)